PWSweather.com
Personal Weather Stations
Station Observations
IPORTUGA89
BarosaPT

BarosaPT

Lat: 39.754028, Lon: -8.843

Elevation: 98

Station Type: Davis Vp2

High Low Average
Temperature 60.6°F15.9°C 40.6°F4.8°C 51.4°F10.8°C
Dew Point 54.0°F12.2°C 39.0°F3.9°C 48.3°F9.1°C
Winds 10.1 mph 16.3 kmh Calm Calm 2.0 mph W3.2 kmh W
Wind Gusts 17.0 mph27.4 kmh -- 4.0 mph6.4 kmh
Humidity 95% 72% 89%
Pressure 30.34 in1027.4 mb 30.29 in1025.7 mb -
Precipitation 0.08 in2.0 mm - -
Hour Temp Dew Point Humidity Winds Wind Gusts Pressure Precip Precip Rate Daily Precip Total
12:06 AM 47.7°F8.7°C 46.2°F7.9°C 95% Calm Calm -- 30.29 in1025.7 mb 0.00 in0.0 mm 0.00 in0.0 mm 0.00 in0.0 mm
12:16 AM 48.0°F8.9°C 46.6°F8.1°C 95% Calm Calm -- 30.29 in1025.7 mb 0.00 in0.0 mm 0.00 in0.0 mm 0.00 in0.0 mm
12:27 AM 48.0°F8.9°C 46.6°F8.1°C 95% Calm Calm -- 30.29 in1025.7 mb 0.00 in0.0 mm 0.00 in0.0 mm 0.00 in0.0 mm
12:37 AM 48.2°F9.0°C 46.8°F8.2°C 95% Calm Calm -- 30.29 in1025.7 mb 0.00 in0.0 mm 0.00 in0.0 mm 0.00 in0.0 mm
12:47 AM 48.4°F9.1°C 46.9°F8.3°C 95% Calm Calm -- 30.29 in1025.7 mb 0.00 in0.0 mm 0.00 in0.0 mm 0.00 in0.0 mm
12:57 AM 48.4°F9.1°C 46.8°F8.2°C 94% Calm Calm -- 30.29 in1025.7 mb 0.00 in0.0 mm 0.00 in0.0 mm 0.00 in0.0 mm
01:07 AM 48.4°F9.1°C 46.8°F8.2°C 94% Calm Calm -- 30.29 in1025.7 mb 0.00 in0.0 mm 0.00 in0.0 mm 0.00 in0.0 mm
01:17 AM 48.6°F9.2°C 47.1°F8.4°C 95% Calm Calm -- 30.29 in1025.7 mb 0.00 in0.0 mm 0.00 in0.0 mm 0.00 in0.0 mm
01:27 AM 48.6°F9.2°C 47.1°F8.4°C 95% Calm Calm -- 30.29 in1025.7 mb 0.00 in0.0 mm 0.00 in0.0 mm 0.00 in0.0 mm
01:37 AM 48.6°F9.2°C 47.1°F8.4°C 95% Calm Calm -- 30.29 in1025.7 mb 0.00 in0.0 mm 0.00 in0.0 mm 0.00 in0.0 mm
01:48 AM 48.6°F9.2°C 46.9°F8.3°C 94% Calm Calm -- 30.29 in1025.7 mb 0.00 in0.0 mm 0.00 in0.0 mm 0.00 in0.0 mm
01:58 AM 48.7°F9.3°C 47.3°F8.5°C 95% Calm Calm -- 30.29 in1025.7 mb 0.00 in0.0 mm 0.00 in0.0 mm 0.00 in0.0 mm
02:08 AM 48.9°F9.4°C 47.5°F8.6°C 95% Calm Calm -- 30.29 in1025.7 mb 0.00 in0.0 mm 0.00 in0.0 mm 0.00 in0.0 mm
02:18 AM 48.9°F9.4°C 47.3°F8.5°C 94% Calm Calm -- 30.29 in1025.7 mb 0.00 in0.0 mm 0.00 in0.0 mm 0.00 in0.0 mm
02:28 AM 49.1°F9.5°C 47.7°F8.7°C 95% Calm Calm -- 30.29 in1025.7 mb 0.00 in0.0 mm 0.00 in0.0 mm 0.00 in0.0 mm
02:38 AM 48.9°F9.4°C 47.3°F8.5°C 94% Calm Calm -- 30.29 in1025.7 mb 0.00 in0.0 mm 0.00 in0.0 mm 0.00 in0.0 mm
02:48 AM 49.1°F9.5°C 47.7°F8.7°C 95% Calm Calm -- 30.29 in1025.7 mb 0.00 in0.0 mm 0.00 in0.0 mm 0.00 in0.0 mm
02:58 AM 49.3°F9.6°C 47.7°F8.7°C 94% Calm Calm -- 30.29 in1025.7 mb 0.00 in0.0 mm 0.00 in0.0 mm 0.00 in0.0 mm
03:08 AM 49.5°F9.7°C 47.8°F8.8°C 94% Calm Calm -- 30.29 in1025.7 mb 0.00 in0.0 mm 0.00 in0.0 mm 0.00 in0.0 mm
03:18 AM 49.5°F9.7°C 47.8°F8.8°C 94% Calm Calm -- 30.29 in1025.7 mb 0.00 in0.0 mm 0.00 in0.0 mm 0.00 in0.0 mm
03:29 AM 49.5°F9.7°C 47.8°F8.8°C 94% Calm Calm -- 30.29 in1025.7 mb 0.00 in0.0 mm 0.00 in0.0 mm 0.00 in0.0 mm
03:39 AM 49.5°F9.7°C 47.8°F8.8°C 94% Calm Calm -- 30.29 in1025.7 mb 0.00 in0.0 mm 0.00 in0.0 mm 0.00 in0.0 mm
03:49 AM 49.6°F9.8°C 48.0°F8.9°C 94% Calm Calm -- 30.29 in1025.7 mb 0.00 in0.0 mm 0.00 in0.0 mm 0.00 in0.0 mm
03:59 AM 49.8°F9.9°C 48.2°F9.0°C 94% Calm Calm -- 30.29 in1025.7 mb 0.00 in0.0 mm 0.00 in0.0 mm 0.00 in0.0 mm
04:09 AM 49.8°F9.9°C 48.2°F9.0°C 94% Calm Calm -- 30.29 in1025.7 mb 0.00 in0.0 mm 0.00 in0.0 mm 0.00 in0.0 mm
04:19 AM 49.8°F9.9°C 48.2°F9.0°C 94% Calm Calm -- 30.29 in1025.7 mb 0.00 in0.0 mm 0.00 in0.0 mm 0.00 in0.0 mm
04:29 AM 50.0°F10.0°C 48.4°F9.1°C 94% Calm Calm -- 30.29 in1025.7 mb 0.00 in0.0 mm 0.00 in0.0 mm 0.00 in0.0 mm
04:40 AM 50.2°F10.1°C 48.6°F9.2°C 94% Calm Calm -- 30.29 in1025.7 mb 0.00 in0.0 mm 0.00 in0.0 mm 0.00 in0.0 mm
04:50 AM 50.2°F10.1°C 48.6°F9.2°C 94% Calm Calm -- 30.29 in1025.7 mb 0.01 in0.3 mm 0.06 in1.5 mm 0.01 in0.3 mm
05:00 AM 50.2°F10.1°C 48.6°F9.2°C 94% Calm Calm -- 30.29 in1025.7 mb 0.02 in0.5 mm 0.01 in0.3 mm 0.02 in0.5 mm
05:10 AM 50.2°F10.1°C 48.6°F9.2°C 94% Calm Calm -- 30.29 in1025.7 mb 0.03 in0.8 mm 0.06 in1.5 mm 0.03 in0.8 mm
05:20 AM 50.2°F10.1°C 48.6°F9.2°C 94% Calm Calm -- 30.30 in1026.1 mb 0.03 in0.8 mm 0.00 in0.0 mm 0.03 in0.8 mm
05:30 AM 50.4°F10.2°C 48.7°F9.3°C 94% Calm Calm -- 30.29 in1025.7 mb 0.03 in0.8 mm 0.00 in0.0 mm 0.03 in0.8 mm
05:40 AM 50.5°F10.3°C 48.9°F9.4°C 94% Calm Calm -- 30.30 in1026.1 mb 0.03 in0.8 mm 0.00 in0.0 mm 0.03 in0.8 mm
05:50 AM 50.5°F10.3°C 48.9°F9.4°C 94% Calm Calm -- 30.30 in1026.1 mb 0.04 in1.0 mm 0.06 in1.5 mm 0.05 in1.3 mm
06:00 AM 50.7°F10.4°C 49.1°F9.5°C 94% Calm Calm -- 30.30 in1026.1 mb 0.04 in1.0 mm 0.00 in0.0 mm 0.06 in1.5 mm
06:10 AM 50.7°F10.4°C 49.1°F9.5°C 94% Calm Calm -- 30.30 in1026.1 mb 0.03 in0.8 mm 0.00 in0.0 mm 0.06 in1.5 mm
06:21 AM 50.7°F10.4°C 49.1°F9.5°C 94% Calm Calm -- 30.30 in1026.1 mb 0.04 in1.0 mm 0.05 in1.3 mm 0.07 in1.8 mm
06:31 AM 50.7°F10.4°C 49.3°F9.6°C 95% Calm Calm -- 30.30 in1026.1 mb 0.04 in1.0 mm 0.00 in0.0 mm 0.07 in1.8 mm
06:41 AM 50.7°F10.4°C 49.3°F9.6°C 95% Calm Calm -- 30.30 in1026.1 mb 0.05 in1.3 mm 0.06 in1.5 mm 0.08 in2.0 mm
06:51 AM 50.5°F10.3°C 49.1°F9.5°C 95% Calm Calm -- 30.30 in1026.1 mb 0.03 in0.8 mm 0.00 in0.0 mm 0.08 in2.0 mm
07:01 AM 50.7°F10.4°C 49.3°F9.6°C 95% Calm Calm -- 30.31 in1026.4 mb 0.02 in0.5 mm 0.00 in0.0 mm 0.08 in2.0 mm
07:11 AM 50.7°F10.4°C 49.3°F9.6°C 95% Calm Calm -- 30.31 in1026.4 mb 0.02 in0.5 mm 0.00 in0.0 mm 0.08 in2.0 mm
07:21 AM 50.7°F10.4°C 49.3°F9.6°C 95% Calm Calm -- 30.31 in1026.4 mb 0.01 in0.3 mm 0.00 in0.0 mm 0.08 in2.0 mm
07:31 AM 50.7°F10.4°C 49.3°F9.6°C 95% Calm Calm -- 30.31 in1026.4 mb 0.01 in0.3 mm 0.00 in0.0 mm 0.08 in2.0 mm
07:41 AM 50.5°F10.3°C 49.1°F9.5°C 95% Calm Calm -- 30.31 in1026.4 mb 0.00 in0.0 mm 0.00 in0.0 mm 0.08 in2.0 mm
07:52 AM 50.4°F10.2°C 48.9°F9.4°C 95% Calm Calm -- 30.31 in1026.4 mb 0.00 in0.0 mm 0.00 in0.0 mm 0.08 in2.0 mm
08:02 AM 50.5°F10.3°C 49.1°F9.5°C 95% Calm Calm -- 30.32 in1026.8 mb 0.00 in0.0 mm 0.00 in0.0 mm 0.08 in2.0 mm
08:12 AM 50.7°F10.4°C 49.3°F9.6°C 95% Calm Calm -- 30.32 in1026.8 mb 0.00 in0.0 mm 0.00 in0.0 mm 0.08 in2.0 mm
08:22 AM 50.7°F10.4°C 49.3°F9.6°C 95% Calm Calm -- 30.32 in1026.8 mb 0.00 in0.0 mm 0.00 in0.0 mm 0.08 in2.0 mm
08:32 AM 50.7°F10.4°C 49.3°F9.6°C 95% Calm Calm -- 30.32 in1026.8 mb 0.00 in0.0 mm 0.00 in0.0 mm 0.08 in2.0 mm
08:42 AM 50.7°F10.4°C 49.3°F9.6°C 95% Calm Calm -- 30.32 in1026.8 mb 0.00 in0.0 mm 0.00 in0.0 mm 0.08 in2.0 mm
08:52 AM 51.3°F10.7°C 49.8°F9.9°C 95% Calm Calm 0.9 mph1.4 kmh 30.32 in1026.8 mb 0.00 in0.0 mm 0.00 in0.0 mm 0.08 in2.0 mm
09:02 AM 51.3°F10.7°C 49.8°F9.9°C 95% Calm Calm -- 30.33 in1027.1 mb 0.00 in0.0 mm 0.00 in0.0 mm 0.08 in2.0 mm
09:13 AM 51.4°F10.8°C 50.0°F10.0°C 95% Calm Calm -- 30.33 in1027.1 mb 0.00 in0.0 mm 0.00 in0.0 mm 0.08 in2.0 mm
09:23 AM 51.6°F10.9°C 50.2°F10.1°C 95% Calm Calm -- 30.33 in1027.1 mb 0.00 in0.0 mm 0.00 in0.0 mm 0.08 in2.0 mm
09:33 AM 52.0°F11.1°C 50.5°F10.3°C 95% Calm Calm 6.9 mph11.1 kmh 30.33 in1027.1 mb 0.00 in0.0 mm 0.00 in0.0 mm 0.08 in2.0 mm
09:43 AM 52.3°F11.3°C 50.9°F10.5°C 95% Calm Calm 4.9 mph7.9 kmh 30.34 in1027.4 mb 0.00 in0.0 mm 0.00 in0.0 mm 0.08 in2.0 mm
09:53 AM 52.9°F11.6°C 51.4°F10.8°C 95% Calm Calm 4.0 mph6.4 kmh 30.34 in1027.4 mb 0.00 in0.0 mm 0.00 in0.0 mm 0.08 in2.0 mm
10:03 AM 53.2°F11.8°C 51.6°F10.9°C 94% Calm Calm 0.9 mph1.4 kmh 30.34 in1027.4 mb 0.00 in0.0 mm 0.00 in0.0 mm 0.08 in2.0 mm
10:13 AM 53.4°F11.9°C 51.8°F11.0°C 94% Calm Calm -- 30.34 in1027.4 mb 0.00 in0.0 mm 0.00 in0.0 mm 0.08 in2.0 mm
10:23 AM 54.0°F12.2°C 52.0°F11.1°C 93% Calm Calm -- 30.34 in1027.4 mb 0.00 in0.0 mm 0.00 in0.0 mm 0.08 in2.0 mm
10:33 AM 54.3°F12.4°C 52.3°F11.3°C 93% Calm Calm 6.0 mph9.7 kmh 30.34 in1027.4 mb 0.00 in0.0 mm 0.00 in0.0 mm 0.08 in2.0 mm
10:43 AM 54.9°F12.7°C 52.5°F11.4°C 92% 4.0 mph NNW6.4 kmh NNW 8.1 mph13.0 kmh 30.34 in1027.4 mb 0.00 in0.0 mm 0.00 in0.0 mm 0.08 in2.0 mm
10:53 AM 55.0°F12.8°C 52.5°F11.4°C 91% 4.0 mph N6.4 kmh N 8.1 mph13.0 kmh 30.34 in1027.4 mb 0.00 in0.0 mm 0.00 in0.0 mm 0.08 in2.0 mm
11:03 AM 55.2°F12.9°C 52.3°F11.3°C 90% 4.9 mph N7.9 kmh N 10.1 mph16.3 kmh 30.34 in1027.4 mb 0.00 in0.0 mm 0.00 in0.0 mm 0.08 in2.0 mm
11:13 AM 55.6°F13.1°C 52.7°F11.5°C 90% 4.0 mph 6.4 kmh 8.1 mph13.0 kmh 30.34 in1027.4 mb 0.00 in0.0 mm 0.00 in0.0 mm 0.08 in2.0 mm
11:23 AM 55.9°F13.3°C 53.1°F11.7°C 90% 4.0 mph NNW6.4 kmh NNW 10.1 mph16.3 kmh 30.34 in1027.4 mb 0.00 in0.0 mm 0.00 in0.0 mm 0.08 in2.0 mm
11:33 AM 56.5°F13.6°C 53.2°F11.8°C 89% 4.9 mph NNW7.9 kmh NNW 11.0 mph17.7 kmh 30.34 in1027.4 mb 0.00 in0.0 mm 0.00 in0.0 mm 0.08 in2.0 mm
11:43 AM 56.7°F13.7°C 52.9°F11.6°C 87% 4.9 mph NNW7.9 kmh NNW 8.9 mph14.3 kmh 30.34 in1027.4 mb 0.00 in0.0 mm 0.00 in0.0 mm 0.08 in2.0 mm
11:53 AM 56.5°F13.6°C 52.7°F11.5°C 87% 4.9 mph N7.9 kmh N 8.9 mph14.3 kmh 30.34 in1027.4 mb 0.00 in0.0 mm 0.00 in0.0 mm 0.08 in2.0 mm
12:03 PM 56.7°F13.7°C 52.9°F11.6°C 87% 4.9 mph NW7.9 kmh NW 11.0 mph17.7 kmh 30.34 in1027.4 mb 0.00 in0.0 mm 0.00 in0.0 mm 0.08 in2.0 mm
12:13 PM 57.0°F13.9°C 53.2°F11.8°C 87% 4.9 mph ENE7.9 kmh ENE 11.0 mph17.7 kmh 30.34 in1027.4 mb 0.00 in0.0 mm 0.00 in0.0 mm 0.08 in2.0 mm
12:23 PM 57.2°F14.0°C 52.7°F11.5°C 85% 6.9 mph N11.1 kmh N 12.1 mph19.5 kmh 30.33 in1027.1 mb 0.00 in0.0 mm 0.00 in0.0 mm 0.08 in2.0 mm
12:33 PM 57.9°F14.4°C 53.1°F11.7°C 84% 6.9 mph N11.1 kmh N 12.1 mph19.5 kmh 30.33 in1027.1 mb 0.00 in0.0 mm 0.00 in0.0 mm 0.08 in2.0 mm
12:43 PM 57.7°F14.3°C 52.7°F11.5°C 83% 6.0 mph N9.7 kmh N 11.0 mph17.7 kmh 30.32 in1026.8 mb 0.00 in0.0 mm 0.00 in0.0 mm 0.08 in2.0 mm
12:53 PM 57.9°F14.4°C 52.7°F11.5°C 83% 4.0 mph NNE6.4 kmh NNE 8.1 mph13.0 kmh 30.32 in1026.8 mb 0.00 in0.0 mm 0.00 in0.0 mm 0.08 in2.0 mm
01:03 PM 58.6°F14.8°C 52.9°F11.6°C 81% 4.0 mph NNE6.4 kmh NNE 10.1 mph16.3 kmh 30.32 in1026.8 mb 0.00 in0.0 mm 0.00 in0.0 mm 0.08 in2.0 mm
01:13 PM 59.4°F15.2°C 53.6°F12.0°C 81% 4.0 mph NW6.4 kmh NW 8.9 mph14.3 kmh 30.31 in1026.4 mb 0.00 in0.0 mm 0.00 in0.0 mm 0.08 in2.0 mm
01:23 PM 59.2°F15.1°C 53.6°F12.0°C 82% 6.0 mph NW9.7 kmh NW 13.0 mph20.9 kmh 30.31 in1026.4 mb 0.00 in0.0 mm 0.00 in0.0 mm 0.08 in2.0 mm
01:33 PM 59.2°F15.1°C 53.4°F11.9°C 81% 6.0 mph NNW9.7 kmh NNW 10.1 mph16.3 kmh 30.31 in1026.4 mb 0.00 in0.0 mm 0.00 in0.0 mm 0.08 in2.0 mm
01:43 PM 60.3°F15.7°C 53.8°F12.1°C 79% 4.0 mph N6.4 kmh N 13.0 mph20.9 kmh 30.30 in1026.1 mb 0.00 in0.0 mm 0.00 in0.0 mm 0.08 in2.0 mm
01:53 PM 60.6°F15.9°C 53.1°F11.7°C 76% 6.0 mph NW9.7 kmh NW 11.0 mph17.7 kmh 30.30 in1026.1 mb 0.00 in0.0 mm 0.00 in0.0 mm 0.08 in2.0 mm
02:03 PM 60.3°F15.7°C 53.1°F11.7°C 77% 8.1 mph NW13.0 kmh NW 14.1 mph22.7 kmh 30.29 in1025.7 mb 0.00 in0.0 mm 0.00 in0.0 mm 0.08 in2.0 mm
02:13 PM 60.1°F15.6°C 54.0°F12.2°C 80% 8.1 mph NW13.0 kmh NW 15.0 mph24.1 kmh 30.29 in1025.7 mb 0.00 in0.0 mm 0.00 in0.0 mm 0.08 in2.0 mm
02:23 PM 59.5°F15.3°C 53.8°F12.1°C 81% 8.1 mph W13.0 kmh W 12.1 mph19.5 kmh 30.29 in1025.7 mb 0.00 in0.0 mm 0.00 in0.0 mm 0.08 in2.0 mm
02:33 PM 59.0°F15.0°C 53.6°F12.0°C 82% 8.1 mph W13.0 kmh W 13.0 mph20.9 kmh 30.29 in1025.7 mb 0.00 in0.0 mm 0.00 in0.0 mm 0.08 in2.0 mm
02:43 PM 58.6°F14.8°C 53.2°F11.8°C 82% 6.9 mph NW11.1 kmh NW 12.1 mph19.5 kmh 30.29 in1025.7 mb 0.00 in0.0 mm 0.00 in0.0 mm 0.08 in2.0 mm
02:53 PM 58.3°F14.6°C 52.5°F11.4°C 81% 8.1 mph NW13.0 kmh NW 14.1 mph22.7 kmh 30.29 in1025.7 mb 0.00 in0.0 mm 0.00 in0.0 mm 0.08 in2.0 mm
03:03 PM 58.1°F14.5°C 52.0°F11.1°C 80% 6.0 mph NW9.7 kmh NW 11.0 mph17.7 kmh 30.29 in1025.7 mb 0.00 in0.0 mm 0.00 in0.0 mm 0.08 in2.0 mm
03:13 PM 58.1°F14.5°C 52.0°F11.1°C 80% 6.9 mph NNW11.1 kmh NNW 12.1 mph19.5 kmh 30.29 in1025.7 mb 0.00 in0.0 mm 0.00 in0.0 mm 0.08 in2.0 mm
03:23 PM 58.6°F14.8°C 51.1°F10.6°C 76% 10.1 mph NNW16.3 kmh NNW 17.0 mph27.4 kmh 30.29 in1025.7 mb 0.00 in0.0 mm 0.00 in0.0 mm 0.08 in2.0 mm
03:33 PM 59.0°F15.0°C 51.4°F10.8°C 76% 8.1 mph N13.0 kmh N 13.0 mph20.9 kmh 30.29 in1025.7 mb 0.00 in0.0 mm 0.00 in0.0 mm 0.08 in2.0 mm
03:43 PM 58.8°F14.9°C 50.9°F10.5°C 75% 8.9 mph N14.3 kmh N 15.0 mph24.1 kmh 30.29 in1025.7 mb 0.00 in0.0 mm 0.00 in0.0 mm 0.08 in2.0 mm
03:53 PM 58.5°F14.7°C 50.2°F10.1°C 74% 10.1 mph NNW16.3 kmh NNW 16.1 mph25.9 kmh 30.29 in1025.7 mb 0.00 in0.0 mm 0.00 in0.0 mm 0.08 in2.0 mm
04:03 PM 58.8°F14.9°C 50.5°F10.3°C 74% 8.1 mph NNW13.0 kmh NNW 14.1 mph22.7 kmh 30.29 in1025.7 mb 0.00 in0.0 mm 0.00 in0.0 mm 0.08 in2.0 mm
04:14 PM 58.8°F14.9°C 50.2°F10.1°C 73% 8.9 mph NW14.3 kmh NW 14.1 mph22.7 kmh 30.29 in1025.7 mb 0.00 in0.0 mm 0.00 in0.0 mm 0.08 in2.0 mm
04:24 PM 58.3°F14.6°C 49.3°F9.6°C 72% 8.9 mph NNW14.3 kmh NNW 16.1 mph25.9 kmh 30.29 in1025.7 mb 0.00 in0.0 mm 0.00 in0.0 mm 0.08 in2.0 mm
04:34 PM 57.6°F14.2°C 48.9°F9.4°C 73% 8.9 mph 14.3 kmh 15.0 mph24.1 kmh 30.29 in1025.7 mb 0.00 in0.0 mm 0.00 in0.0 mm 0.08 in2.0 mm
04:44 PM 57.4°F14.1°C 48.7°F9.3°C 73% 8.1 mph NW13.0 kmh NW 16.1 mph25.9 kmh 30.29 in1025.7 mb 0.00 in0.0 mm 0.00 in0.0 mm 0.08 in2.0 mm
04:54 PM 56.7°F13.7°C 48.4°F9.1°C 74% 6.9 mph NW11.1 kmh NW 12.1 mph19.5 kmh 30.29 in1025.7 mb 0.00 in0.0 mm 0.00 in0.0 mm 0.08 in2.0 mm
05:04 PM 56.1°F13.4°C 48.7°F9.3°C 76% 6.0 mph N9.7 kmh N 12.1 mph19.5 kmh 30.29 in1025.7 mb 0.00 in0.0 mm 0.00 in0.0 mm 0.08 in2.0 mm
05:14 PM 55.9°F13.3°C 48.6°F9.2°C 76% 6.9 mph NW11.1 kmh NW 13.0 mph20.9 kmh 30.29 in1025.7 mb 0.00 in0.0 mm 0.00 in0.0 mm 0.08 in2.0 mm
05:24 PM 55.6°F13.1°C 48.6°F9.2°C 77% 6.9 mph NW11.1 kmh NW 14.1 mph22.7 kmh 30.29 in1025.7 mb 0.00 in0.0 mm 0.00 in0.0 mm 0.08 in2.0 mm
05:34 PM 55.2°F12.9°C 48.6°F9.2°C 78% 6.9 mph WNW11.1 kmh WNW 13.0 mph20.9 kmh 30.29 in1025.7 mb 0.00 in0.0 mm 0.00 in0.0 mm 0.08 in2.0 mm
05:44 PM 55.0°F12.8°C 48.6°F9.2°C 79% 4.9 mph N7.9 kmh N 11.0 mph17.7 kmh 30.30 in1026.1 mb 0.00 in0.0 mm 0.00 in0.0 mm 0.08 in2.0 mm
05:54 PM 54.7°F12.6°C 48.6°F9.2°C 80% 4.9 mph NW7.9 kmh NW 12.1 mph19.5 kmh 30.30 in1026.1 mb 0.00 in0.0 mm 0.00 in0.0 mm 0.08 in2.0 mm
06:04 PM 54.1°F12.3°C 48.4°F9.1°C 81% 2.9 mph NW4.7 kmh NW 10.1 mph16.3 kmh 30.30 in1026.1 mb 0.00 in0.0 mm 0.00 in0.0 mm 0.08 in2.0 mm
06:14 PM 54.0°F12.2°C 48.2°F9.0°C 81% 0.9 mph NW1.4 kmh NW 10.1 mph16.3 kmh 30.30 in1026.1 mb 0.00 in0.0 mm 0.00 in0.0 mm 0.08 in2.0 mm
06:24 PM 53.4°F11.9°C 48.0°F8.9°C 82% 2.9 mph WNW4.7 kmh WNW 10.1 mph16.3 kmh 30.30 in1026.1 mb 0.00 in0.0 mm 0.00 in0.0 mm 0.08 in2.0 mm
06:34 PM 53.1°F11.7°C 48.0°F8.9°C 83% 0.9 mph NW1.4 kmh NW 4.9 mph7.9 kmh 30.31 in1026.4 mb 0.00 in0.0 mm 0.00 in0.0 mm 0.08 in2.0 mm
06:44 PM 52.2°F11.2°C 47.5°F8.6°C 84% Calm Calm -- 30.30 in1026.1 mb 0.00 in0.0 mm 0.00 in0.0 mm 0.08 in2.0 mm
06:54 PM 51.4°F10.8°C 47.5°F8.6°C 86% Calm Calm -- 30.31 in1026.4 mb 0.00 in0.0 mm 0.00 in0.0 mm 0.08 in2.0 mm
07:04 PM 50.9°F10.5°C 46.9°F8.3°C 86% Calm Calm -- 30.31 in1026.4 mb 0.00 in0.0 mm 0.00 in0.0 mm 0.08 in2.0 mm
07:14 PM 50.2°F10.1°C 46.4°F8.0°C 87% Calm Calm -- 30.31 in1026.4 mb 0.00 in0.0 mm 0.00 in0.0 mm 0.08 in2.0 mm
07:24 PM 49.3°F9.6°C 45.9°F7.7°C 88% Calm Calm -- 30.31 in1026.4 mb 0.00 in0.0 mm 0.00 in0.0 mm 0.08 in2.0 mm
07:34 PM 48.7°F9.3°C 45.3°F7.4°C 88% Calm Calm -- 30.31 in1026.4 mb 0.00 in0.0 mm 0.00 in0.0 mm 0.08 in2.0 mm
07:44 PM 48.0°F8.9°C 45.0°F7.2°C 89% Calm Calm -- 30.32 in1026.8 mb 0.00 in0.0 mm 0.00 in0.0 mm 0.08 in2.0 mm
07:55 PM 47.5°F8.6°C 44.8°F7.1°C 90% Calm Calm -- 30.32 in1026.8 mb 0.00 in0.0 mm 0.00 in0.0 mm 0.08 in2.0 mm
08:05 PM 47.1°F8.4°C 44.4°F6.9°C 90% Calm Calm -- 30.31 in1026.4 mb 0.00 in0.0 mm 0.00 in0.0 mm 0.08 in2.0 mm
08:15 PM 46.8°F8.2°C 44.2°F6.8°C 91% Calm Calm -- 30.31 in1026.4 mb 0.00 in0.0 mm 0.00 in0.0 mm 0.08 in2.0 mm
08:25 PM 46.6°F8.1°C 44.1°F6.7°C 91% Calm Calm -- 30.31 in1026.4 mb 0.00 in0.0 mm 0.00 in0.0 mm 0.08 in2.0 mm
08:35 PM 46.2°F7.9°C 43.7°F6.5°C 91% Calm Calm -- 30.32 in1026.8 mb 0.00 in0.0 mm 0.00 in0.0 mm 0.08 in2.0 mm
08:45 PM 45.7°F7.6°C 43.2°F6.2°C 91% Calm Calm -- 30.32 in1026.8 mb 0.00 in0.0 mm 0.00 in0.0 mm 0.08 in2.0 mm
08:55 PM 45.3°F7.4°C 43.2°F6.2°C 92% Calm Calm -- 30.32 in1026.8 mb 0.00 in0.0 mm 0.00 in0.0 mm 0.08 in2.0 mm
09:06 PM 45.3°F7.4°C 43.2°F6.2°C 92% Calm Calm -- 30.32 in1026.8 mb 0.00 in0.0 mm 0.00 in0.0 mm 0.08 in2.0 mm
09:16 PM 45.0°F7.2°C 42.8°F6.0°C 92% Calm Calm -- 30.32 in1026.8 mb 0.00 in0.0 mm 0.00 in0.0 mm 0.08 in2.0 mm
09:26 PM 45.0°F7.2°C 42.8°F6.0°C 92% Calm Calm -- 30.31 in1026.4 mb 0.00 in0.0 mm 0.00 in0.0 mm 0.08 in2.0 mm
09:36 PM 44.2°F6.8°C 42.1°F5.6°C 92% Calm Calm -- 30.32 in1026.8 mb 0.00 in0.0 mm 0.00 in0.0 mm 0.08 in2.0 mm
09:46 PM 44.1°F6.7°C 42.1°F5.6°C 93% Calm Calm -- 30.31 in1026.4 mb 0.00 in0.0 mm 0.00 in0.0 mm 0.08 in2.0 mm
09:56 PM 43.5°F6.4°C 41.7°F5.4°C 93% Calm Calm -- 30.32 in1026.8 mb 0.00 in0.0 mm 0.00 in0.0 mm 0.08 in2.0 mm
10:06 PM 43.2°F6.2°C 41.4°F5.2°C 93% Calm Calm -- 30.32 in1026.8 mb 0.00 in0.0 mm 0.00 in0.0 mm 0.08 in2.0 mm
10:16 PM 42.8°F6.0°C 41.0°F5.0°C 93% Calm Calm -- 30.32 in1026.8 mb 0.00 in0.0 mm 0.00 in0.0 mm 0.08 in2.0 mm
10:26 PM 42.6°F5.9°C 40.8°F4.9°C 93% Calm Calm -- 30.32 in1026.8 mb 0.00 in0.0 mm 0.00 in0.0 mm 0.08 in2.0 mm
10:36 PM 42.3°F5.7°C 40.5°F4.7°C 93% Calm Calm -- 30.32 in1026.8 mb 0.00 in0.0 mm 0.00 in0.0 mm 0.08 in2.0 mm
10:47 PM 42.3°F5.7°C 40.5°F4.7°C 93% Calm Calm -- 30.32 in1026.8 mb 0.00 in0.0 mm 0.00 in0.0 mm 0.08 in2.0 mm
10:57 PM 41.9°F5.5°C 40.1°F4.5°C 93% Calm Calm -- 30.33 in1027.1 mb 0.00 in0.0 mm 0.00 in0.0 mm 0.08 in2.0 mm
11:07 PM 42.1°F5.6°C 40.5°F4.7°C 94% Calm Calm -- 30.32 in1026.8 mb 0.00 in0.0 mm 0.00 in0.0 mm 0.08 in2.0 mm
11:17 PM 41.2°F5.1°C 39.4°F4.1°C 93% Calm Calm -- 30.32 in1026.8 mb 0.00 in0.0 mm 0.00 in0.0 mm 0.08 in2.0 mm
11:27 PM 41.2°F5.1°C 39.6°F4.2°C 94% Calm Calm -- 30.32 in1026.8 mb 0.00 in0.0 mm 0.00 in0.0 mm 0.08 in2.0 mm
11:37 PM 40.8°F4.9°C 39.0°F3.9°C 93% Calm Calm -- 30.32 in1026.8 mb 0.00 in0.0 mm 0.00 in0.0 mm 0.08 in2.0 mm
11:47 PM 40.6°F4.8°C 39.0°F3.9°C 94% Calm Calm -- 30.32 in1026.8 mb 0.00 in0.0 mm 0.00 in0.0 mm 0.08 in2.0 mm
11:58 PM 40.8°F4.9°C 39.2°F4.0°C 94% Calm Calm -- 30.32 in1026.8 mb 0.00 in0.0 mm 0.00 in0.0 mm 0.08 in2.0 mm